Time;durP1;ratioP1;P1;durP2;ratioP2;P2;SDS_P1;SDS_P2;PMS_P1;PMS_P2;Temp;Humidity;BMP_temperature;BMP_pressure;BME280_temperature;BME280_humidity;BME280_pressure;Samples;Min_cycle;Max_cycle;Signal;HPM_P1;HPM_P2
2024/01/12 00:02:18;;;;;;;21.05;12.13;;;23.10;37.50;;;;;;6256276;27;84169;-49
2024/01/12 00:05:19;;;;;;;19.75;12.20;;;23.10;37.50;;;;;;6247750;27;84076;-51
2024/01/12 00:08:19;;;;;;;20.30;12.02;;;23.10;37.50;;;;;;6254625;27;83094;-50
2024/01/12 00:11:20;;;;;;;20.48;12.10;;;23.10;37.70;;;;;;6255661;27;83259;-50
2024/01/12 00:14:20;;;;;;;18.45;12.00;;;23.10;37.60;;;;;;6251679;27;83114;-51
2024/01/12 00:17:21;;;;;;;19.52;12.35;;;23.10;37.80;;;;;;6251243;27;85478;-49
2024/01/12 00:20:21;;;;;;;20.75;11.65;;;23.10;37.80;;;;;;6268044;27;85078;-58
2024/01/12 00:23:22;;;;;;;16.95;11.38;;;23.10;37.90;;;;;;6274490;27;83110;-59
2024/01/12 00:26:22;;;;;;;19.95;11.40;;;23.10;38.00;;;;;;6274465;27;86057;-57
2024/01/12 00:29:23;;;;;;;20.30;12.00;;;23.10;38.20;;;;;;6276443;27;85781;-56
2024/01/12 00:32:24;;;;;;;17.58;10.80;;;23.10;38.10;;;;;;6272631;27;83067;-52
2024/01/12 00:35:24;;;;;;;18.05;11.38;;;23.10;38.20;;;;;;6272357;27;83097;-55
2024/01/12 00:38:25;;;;;;;18.75;11.23;;;23.10;38.20;;;;;;6273996;27;83994;-57
2024/01/12 00:41:25;;;;;;;16.92;10.80;;;23.10;38.20;;;;;;6271533;27;83066;-60
2024/01/12 00:44:26;;;;;;;17.83;11.07;;;23.10;38.20;;;;;;6272599;27;83053;-59
2024/01/12 00:47:26;;;;;;;17.77;11.38;;;23.10;38.20;;;;;;6273561;27;85863;-59
2024/01/12 00:50:27;;;;;;;17.90;11.05;;;23.10;38.30;;;;;;6273624;27;83579;-59
2024/01/12 00:53:27;;;;;;;20.70;11.70;;;23.10;38.20;;;;;;6274005;27;83034;-56
2024/01/12 00:56:27;;;;;;;17.75;11.27;;;23.10;38.10;;;;;;6262178;27;83151;-61
2024/01/12 00:59:28;;;;;;;19.58;10.85;;;23.10;38.10;;;;;;6288207;27;83598;-61
2024/01/12 01:02:28;;;;;;;17.73;10.88;;;23.10;38.10;;;;;;6273843;27;84025;-63
2024/01/12 01:05:29;;;;;;;16.17;10.40;;;23.10;38.10;;;;;;6271148;27;83875;-64
2024/01/12 01:08:29;;;;;;;17.88;10.68;;;23.10;38.00;;;;;;6272053;27;83271;-63
2024/01/12 01:11:30;;;;;;;16.80;11.00;;;23.10;37.90;;;;;;6272653;27;83653;-62
2024/01/12 01:14:30;;;;;;;19.05;11.38;;;23.10;37.90;;;;;;6273800;27;83017;-63
2024/01/12 01:17:31;;;;;;;17.40;11.10;;;23.10;37.90;;;;;;6273667;27;83377;-64
2024/01/12 01:20:33;;;;;;;18.15;9.98;;;23.10;37.90;;;;;;6268655;27;83222;-63
2024/01/12 01:23:33;;;;;;;16.67;10.85;;;23.10;38.00;;;;;;6247764;27;82861;-64
2024/01/12 01:26:34;;;;;;;16.95;10.57;;;23.10;38.00;;;;;;6262311;27;83301;-65
2024/01/12 01:29:34;;;;;;;16.70;10.30;;;23.10;38.00;;;;;;6248941;27;84449;-63
2024/01/12 01:32:35;;;;;;;16.63;9.57;;;23.10;38.00;;;;;;6265112;27;83404;-51
2024/01/12 01:35:35;;;;;;;14.20;9.32;;;23.10;37.90;;;;;;6260669;27;83068;-54
2024/01/12 01:38:36;;;;;;;13.60;8.98;;;23.10;37.90;;;;;;6255601;27;80298;-56
2024/01/12 01:41:36;;;;;;;13.52;8.98;;;23.10;38.00;;;;;;6253060;27;81416;-56
2024/01/12 01:44:37;;;;;;;15.30;9.75;;;23.10;37.90;;;;;;6269301;27;80433;-56
2024/01/12 01:47:37;;;;;;;15.15;9.38;;;23.10;38.00;;;;;;6268945;27;81935;-53
2024/01/12 01:50:37;;;;;;;14.18;9.07;;;23.10;38.00;;;;;;6275815;27;80812;-49
2024/01/12 01:53:38;;;;;;;13.65;9.50;;;23.10;38.00;;;;;;6268644;27;80784;-48
2024/01/12 01:56:39;;;;;;;14.73;9.32;;;23.10;38.10;;;;;;6276485;27;80757;-49
2024/01/12 01:59:39;;;;;;;13.18;8.88;;;23.10;38.10;;;;;;6277471;27;81384;-49
2024/01/12 02:02:40;;;;;;;14.02;9.60;;;23.10;38.20;;;;;;6276145;27;81676;-47
2024/01/12 02:05:40;;;;;;;14.63;9.00;;;23.10;38.20;;;;;;6277226;27;80628;-47
2024/01/12 02:08:41;;;;;;;12.25;8.43;;;23.10;38.30;;;;;;6276416;27;80882;-51
2024/01/12 02:11:41;;;;;;;13.05;8.90;;;23.10;38.20;;;;;;6289213;27;80434;-52
2024/01/12 02:14:42;;;;;;;14.75;9.30;;;23.10;38.20;;;;;;6280395;27;80561;-49
2024/01/12 02:17:43;;;;;;;13.75;9.10;;;23.10;38.20;;;;;;6275661;27;80511;-54
2024/01/12 02:20:47;;;;;;;15.82;9.27;;;23.10;38.20;;;;;;6269179;27;81971;-55
2024/01/12 02:23:48;;;;;;;14.73;9.10;;;23.10;38.20;;;;;;6283298;27;83074;-50
2024/01/12 02:26:48;;;;;;;15.55;9.90;;;23.10;38.20;;;;;;6275204;27;80405;-48
2024/01/12 02:29:49;;;;;;;14.50;9.02;;;23.10;38.20;;;;;;6274655;27;85931;-58
2024/01/12 02:32:49;;;;;;;14.30;9.00;;;23.10;38.10;;;;;;6261938;27;81353;-56
2024/01/12 02:35:50;;;;;;;13.88;8.35;;;23.10;38.20;;;;;;6251265;27;81909;-58
2024/01/12 02:38:50;;;;;;;15.65;9.20;;;23.10;38.00;;;;;;6231503;27;80492;-58
2024/01/12 02:41:51;;;;;;;13.73;8.90;;;23.10;38.00;;;;;;6245478;27;81437;-60
2024/01/12 02:44:51;;;;;;;13.95;9.05;;;23.10;37.90;;;;;;6265029;27;80494;-58
2024/01/12 02:47:52;;;;;;;15.15;9.35;;;23.20;38.10;;;;;;6257475;27;80977;-61
2024/01/12 02:50:52;;;;;;;14.55;8.55;;;23.10;37.90;;;;;;6250450;27;80997;-57
2024/01/12 02:53:53;;;;;;;15.30;9.38;;;23.10;38.00;;;;;;6239392;27;83002;-57
2024/01/12 02:56:53;;;;;;;14.30;8.70;;;23.10;37.90;;;;;;6263774;27;80369;-57
2024/01/12 02:59:54;;;;;;;15.13;9.25;;;23.10;37.90;;;;;;6251022;27;81823;-56
2024/01/12 03:02:54;;;;;;;15.57;9.55;;;23.10;37.90;;;;;;6249901;27;80414;-59
2024/01/12 03:05:55;;;;;;;12.77;8.85;;;23.10;37.90;;;;;;6233334;28;80985;-52
2024/01/12 03:08:55;;;;;;;13.65;8.88;;;23.10;38.00;;;;;;6247172;27;80440;-51
2024/01/12 03:11:55;;;;;;;15.45;9.30;;;23.10;37.90;;;;;;6250833;27;81389;-48
2024/01/12 03:14:56;;;;;;;15.75;10.02;;;23.10;37.90;;;;;;6259704;27;80261;-47
2024/01/12 03:17:56;;;;;;;12.38;8.80;;;23.10;37.90;;;;;;6266899;27;83337;-47
2024/01/12 03:20:57;;;;;;;12.88;9.00;;;23.10;37.80;;;;;;6274846;27;83098;-48
2024/01/12 03:23:58;;;;;;;13.35;8.77;;;23.20;37.90;;;;;;6274291;27;80181;-48
2024/01/12 03:26:59;;;;;;;13.90;8.65;;;23.10;37.90;;;;;;6272850;27;85769;-51
2024/01/12 03:29:59;;;;;;;13.77;8.32;;;23.10;38.00;;;;;;6262585;27;81882;-54
2024/01/12 03:32:59;;;;;;;14.55;9.15;;;23.10;38.00;;;;;;6262090;27;82069;-51
2024/01/12 03:36:00;;;;;;;14.57;9.38;;;23.10;38.00;;;;;;6256916;27;80475;-50
2024/01/12 03:39:00;;;;;;;12.70;7.95;;;23.10;37.90;;;;;;6274843;27;80416;-53
2024/01/12 03:42:01;;;;;;;13.57;9.13;;;23.10;38.10;;;;;;6274653;27;80798;-50
2024/01/12 03:45:01;;;;;;;13.18;7.95;;;23.10;38.30;;;;;;6264664;27;82304;-50
2024/01/12 03:48:02;;;;;;;11.98;8.05;;;23.10;38.30;;;;;;6279084;27;80815;-48
2024/01/12 03:51:02;;;;;;;11.07;7.60;;;23.10;38.20;;;;;;6265947;27;80423;-51
2024/01/12 03:54:03;;;;;;;13.25;8.05;;;23.10;38.20;;;;;;6277569;27;81058;-49
2024/01/12 03:57:03;;;;;;;11.88;7.50;;;23.20;38.30;;;;;;6254818;27;80512;-53
2024/01/12 04:00:04;;;;;;;11.38;7.80;;;23.10;38.30;;;;;;6254912;27;80769;-49
2024/01/12 04:03:05;;;;;;;11.63;7.93;;;23.10;38.30;;;;;;6276661;27;80401;-48
2024/01/12 04:06:06;;;;;;;12.98;7.43;;;23.20;38.30;;;;;;6274823;27;81774;-47
2024/01/12 04:09:06;;;;;;;12.98;8.30;;;23.20;38.30;;;;;;6259444;27;80389;-47
2024/01/12 04:12:07;;;;;;;11.50;7.57;;;23.20;38.20;;;;;;6243174;28;83062;-45
2024/01/12 04:15:10;;;;;;;10.98;7.80;;;23.10;38.10;;;;;;6233203;28;83404;-50
2024/01/12 04:18:11;;;;;;;12.00;7.85;;;23.10;38.10;;;;;;6215944;28;81466;-65
2024/01/12 04:21:11;;;;;;;13.30;8.00;;;23.10;38.40;;;;;;6254285;27;80516;-62
2024/01/12 04:24:12;;;;;;;12.40;7.82;;;23.10;38.30;;;;;;6252549;27;80450;-62
2024/01/12 04:27:12;;;;;;;13.80;8.80;;;23.10;38.20;;;;;;6275344;27;80496;-65
2024/01/12 04:30:13;;;;;;;12.88;8.38;;;23.10;38.20;;;;;;6277883;27;80963;-64
2024/01/12 04:33:14;;;;;;;14.02;8.43;;;23.00;37.90;;;;;;6261325;27;80462;-63
2024/01/12 04:36:14;;;;;;;13.65;9.02;;;23.00;37.80;;;;;;6254822;27;81427;-60
2024/01/12 04:39:15;;;;;;;13.52;8.00;;;23.00;37.80;;;;;;6253922;27;81042;-60
2024/01/12 04:42:15;;;;;;;13.80;8.35;;;22.90;37.70;;;;;;6254108;27;80311;-62
2024/01/12 04:45:16;;;;;;;11.57;7.38;;;22.90;37.50;;;;;;6252507;27;81382;-59
2024/01/12 04:48:16;;;;;;;12.77;7.22;;;22.90;37.70;;;;;;6250755;27;80584;-60
2024/01/12 04:51:17;;;;;;;10.95;7.32;;;22.80;37.40;;;;;;6254534;27;80724;-60
2024/01/12 04:54:17;;;;;;;10.32;7.25;;;22.90;37.80;;;;;;6268936;27;80720;-64
2024/01/12 04:57:18;;;;;;;11.52;7.53;;;22.90;37.30;;;;;;6266946;27;80763;-63
2024/01/12 05:00:18;;;;;;;9.95;7.55;;;22.80;37.40;;;;;;6269927;27;80950;-64
2024/01/12 05:03:19;;;;;;;11.13;7.47;;;22.90;37.40;;;;;;6273863;27;80475;-62
2024/01/12 05:06:20;;;;;;;11.68;6.57;;;22.80;38.20;;;;;;6262114;27;81159;-64
2024/01/12 05:09:20;;;;;;;10.93;6.65;;;22.80;38.40;;;;;;6260662;27;81863;-63
2024/01/12 05:12:21;;;;;;;10.80;6.97;;;22.80;37.70;;;;;;6261661;27;82402;-59
2024/01/12 05:15:21;;;;;;;14.57;7.07;;;22.80;38.00;;;;;;6258620;27;80503;-53
2024/01/12 05:18:22;;;;;;;9.68;5.88;;;22.80;38.10;;;;;;6263930;27;81163;-50
2024/01/12 05:21:22;;;;;;;9.88;6.88;;;22.80;38.40;;;;;;6274873;27;80375;-50
2024/01/12 05:24:23;;;;;;;11.55;7.10;;;22.80;38.90;;;;;;6267107;27;80780;-53
2024/01/12 05:27:23;;;;;;;10.52;6.18;;;22.70;37.80;;;;;;6258006;27;80801;-51
2024/01/12 05:30:24;;;;;;;11.10;6.40;;;22.80;38.40;;;;;;6256437;27;80662;-49
2024/01/12 05:33:24;;;;;;;10.52;5.95;;;22.70;38.40;;;;;;6253813;27;81798;-63
2024/01/12 05:36:25;;;;;;;11.63;6.63;;;22.70;38.80;;;;;;6254557;27;80863;-62
2024/01/12 05:39:25;;;;;;;9.15;6.22;;;22.70;38.50;;;;;;6253946;27;80939;-63
2024/01/12 05:42:25;;;;;;;10.82;6.30;;;22.70;38.20;;;;;;6252531;27;80431;-62
2024/01/12 05:45:26;;;;;;;8.82;5.80;;;22.70;38.60;;;;;;6253844;27;80553;-67
2024/01/12 05:48:26;;;;;;;15.40;6.07;;;22.70;38.40;;;;;;6254168;27;82182;-62
2024/01/12 05:51:27;;;;;;;15.82;6.22;;;22.70;39.10;;;;;;6259550;27;82691;-55
2024/01/12 05:54:27;;;;;;;10.32;6.00;;;22.60;38.70;;;;;;6259842;27;81664;-58
2024/01/12 05:57:28;;;;;;;13.50;6.93;;;22.70;38.70;;;;;;6256215;27;80901;-58
2024/01/12 06:00:29;;;;;;;12.82;6.47;;;22.70;38.80;;;;;;6256684;27;80363;-61
2024/01/12 06:03:29;;;;;;;11.00;6.35;;;22.70;38.70;;;;;;6254943;27;80891;-56
2024/01/12 06:06:29;;;;;;;15.02;6.28;;;22.60;38.30;;;;;;6264545;27;81074;-59
2024/01/12 06:09:30;;;;;;;9.63;5.63;;;22.60;38.60;;;;;;6267627;27;84886;-56
2024/01/12 06:12:30;;;;;;;12.10;6.18;;;22.60;38.40;;;;;;6255901;27;80250;-62
2024/01/12 06:15:31;;;;;;;9.95;6.55;;;22.60;38.10;;;;;;6265944;27;80598;-62
2024/01/12 06:18:31;;;;;;;9.57;5.80;;;22.60;37.70;;;;;;6257580;27;80660;-63
2024/01/12 06:21:32;;;;;;;9.73;5.47;;;22.50;37.80;;;;;;6261069;27;80715;-62
2024/01/12 06:24:32;;;;;;;9.05;5.85;;;22.50;37.70;;;;;;6277101;27;80620;-61
2024/01/12 06:27:33;;;;;;;11.48;6.13;;;22.40;37.30;;;;;;6252178;27;80497;-52
2024/01/12 06:30:33;;;;;;;8.95;5.88;;;22.40;37.00;;;;;;6257293;27;80921;-52
2024/01/12 06:33:34;;;;;;;13.95;6.72;;;22.40;36.80;;;;;;6265691;27;80436;-54
2024/01/12 06:36:34;;;;;;;12.38;6.60;;;22.40;36.70;;;;;;6258670;27;80828;-54
2024/01/12 06:39:35;;;;;;;12.13;6.70;;;22.30;36.60;;;;;;6267503;27;82822;-53
2024/01/12 06:42:36;;;;;;;11.07;6.90;;;22.30;36.70;;;;;;6259028;27;82042;-50
2024/01/12 06:45:36;;;;;;;12.07;7.53;;;22.30;36.40;;;;;;6258183;27;83133;-50
2024/01/12 06:48:37;;;;;;;11.95;7.18;;;22.20;36.00;;;;;;6243543;27;83197;-50
2024/01/12 06:51:37;;;;;;;11.07;7.07;;;22.20;35.90;;;;;;6267920;27;80492;-49
2024/01/12 06:54:38;;;;;;;12.38;7.18;;;22.20;35.90;;;;;;6262080;27;80513;-52
2024/01/12 06:57:38;;;;;;;12.95;6.38;;;22.20;35.80;;;;;;6254557;27;83905;-50
2024/01/12 07:00:39;;;;;;;11.20;6.22;;;22.20;35.70;;;;;;6256138;27;82539;-48
2024/01/12 07:03:39;;;;;;;12.27;6.68;;;22.10;35.50;;;;;;6265453;27;82426;-51
2024/01/12 07:06:40;;;;;;;11.68;6.25;;;22.10;35.40;;;;;;6232234;27;81447;-47
2024/01/12 07:09:41;;;;;;;10.20;6.25;;;22.10;35.40;;;;;;6266521;27;80664;-49
2024/01/12 07:12:41;;;;;;;11.40;6.43;;;22.10;35.30;;;;;;6270359;27;80870;-49
2024/01/12 07:15:42;;;;;;;8.75;6.20;;;22.10;35.20;;;;;;6264243;27;80789;-51
2024/01/12 07:18:42;;;;;;;9.25;5.70;;;22.10;35.20;;;;;;6262583;27;82884;-48
2024/01/12 07:21:43;;;;;;;8.75;5.60;;;22.10;35.20;;;;;;6259251;27;80999;-57
2024/01/12 07:24:44;;;;;;;14.45;5.80;;;22.10;35.10;;;;;;6260625;27;80809;-54
2024/01/12 07:27:44;;;;;;;10.85;5.82;;;22.10;35.10;;;;;;6257830;27;82791;-56
2024/01/12 07:30:45;;;;;;;8.90;5.30;;;22.10;35.00;;;;;;6258719;27;88203;-57
2024/01/12 07:33:45;;;;;;;9.07;5.15;;;22.10;35.00;;;;;;6254568;27;80364;-55
2024/01/12 07:36:46;;;;;;;7.97;4.55;;;22.10;34.90;;;;;;6259386;27;80376;-55
2024/01/12 07:39:46;;;;;;;8.98;5.45;;;22.10;34.90;;;;;;6268143;27;81847;-50
2024/01/12 07:42:47;;;;;;;7.97;5.20;;;22.20;35.00;;;;;;6251689;27;80870;-51
2024/01/12 07:45:47;;;;;;;9.32;5.57;;;22.20;34.90;;;;;;6268102;27;82091;-49
2024/01/12 07:48:50;;;;;;;7.60;4.15;;;22.30;34.90;;;;;;6262466;27;83968;-53
2024/01/12 07:51:51;;;;;;;7.07;4.15;;;22.40;34.90;;;;;;6268293;27;80605;-53
2024/01/12 07:54:52;;;;;;;9.30;5.43;;;22.40;34.90;;;;;;6244094;27;87106;-50
2024/01/12 07:57:52;;;;;;;8.65;3.97;;;22.50;34.70;;;;;;6264546;27;81648;-52
2024/01/12 08:00:53;;;;;;;7.20;4.18;;;22.50;34.80;;;;;;6269477;27;80338;-53
2024/01/12 08:03:53;;;;;;;7.28;4.05;;;22.50;34.90;;;;;;6251011;27;82936;-49
2024/01/12 08:06:54;;;;;;;9.32;4.07;;;22.50;35.30;;;;;;6270420;27;80352;-51
2024/01/12 08:09:55;;;;;;;13.15;4.32;;;22.50;35.40;;;;;;6252402;27;82385;-53
2024/01/12 08:12:55;;;;;;;6.53;4.07;;;22.50;35.40;;;;;;6253853;27;80355;-50
2024/01/12 08:15:56;;;;;;;6.30;3.72;;;22.40;35.10;;;;;;6269371;27;82513;-49
2024/01/12 08:18:56;;;;;;;8.63;3.97;;;22.40;35.20;;;;;;6268058;27;80647;-50
2024/01/12 08:21:58;;;;;;;6.50;4.40;;;22.40;35.00;;;;;;6255633;27;84102;-50
2024/01/12 08:24:58;;;;;;;7.03;3.95;;;22.40;34.90;;;;;;6261965;27;81956;-50
2024/01/12 08:27:59;;;;;;;7.72;3.40;;;22.50;34.90;;;;;;6269273;27;80943;-50
2024/01/12 08:30:59;;;;;;;4.82;3.63;;;22.50;35.50;;;;;;6271858;27;81736;-51
2024/01/12 08:34:00;;;;;;;8.52;4.32;;;22.50;35.30;;;;;;6255128;27;81088;-48
2024/01/12 08:37:00;;;;;;;6.38;3.33;;;22.50;35.30;;;;;;6265517;27;80386;-56
2024/01/12 08:40:01;;;;;;;8.82;4.05;;;22.60;34.70;;;;;;6262225;27;81604;-57
2024/01/12 08:43:02;;;;;;;6.32;3.35;;;22.60;35.00;;;;;;6253830;27;80468;-53
2024/01/12 08:46:02;;;;;;;6.95;3.78;;;22.70;35.00;;;;;;6250891;27;80182;-55
2024/01/12 08:49:03;;;;;;;7.10;3.33;;;22.80;35.10;;;;;;6255766;27;80382;-51
2024/01/12 08:52:03;;;;;;;6.20;3.55;;;22.80;34.90;;;;;;6265845;27;80103;-54
2024/01/12 08:55:07;;;;;;;7.03;3.70;;;22.90;34.90;;;;;;6271887;27;81026;-53
2024/01/12 08:58:08;;;;;;;6.88;4.00;;;22.90;34.80;;;;;;6256702;27;82342;-56
2024/01/12 09:01:08;;;;;;;6.55;4.10;;;23.00;35.10;;;;;;6253256;27;80286;-53
2024/01/12 09:04:09;;;;;;;6.53;3.28;;;23.10;35.20;;;;;;6253569;27;80645;-54
2024/01/12 09:07:09;;;;;;;5.53;3.70;;;23.20;35.50;;;;;;6253723;27;80916;-52
2024/01/12 09:10:10;;;;;;;7.18;3.50;;;23.30;35.90;;;;;;6258695;27;81155;-56
2024/01/12 09:13:10;;;;;;;4.93;3.10;;;23.50;36.20;;;;;;6258086;27;81309;-55
2024/01/12 09:16:11;;;;;;;7.95;3.53;;;23.60;36.50;;;;;;6273415;27;81090;-57
2024/01/12 09:19:11;;;;;;;6.38;3.38;;;23.70;36.80;;;;;;6258078;27;81370;-55
2024/01/12 09:22:12;;;;;;;8.80;3.60;;;23.80;36.90;;;;;;6271601;27;80932;-53
2024/01/12 09:25:12;;;;;;;5.35;2.83;;;23.90;37.10;;;;;;6252080;27;80731;-54
2024/01/12 09:28:13;;;;;;;6.55;3.53;;;24.00;37.20;;;;;;6267429;27;80604;-57
2024/01/12 09:31:13;;;;;;;7.55;3.10;;;24.10;37.20;;;;;;6266422;27;82089;-52
2024/01/12 09:34:14;;;;;;;5.40;3.17;;;24.10;37.20;;;;;;6256822;27;80521;-53
2024/01/12 09:37:14;;;;;;;5.45;3.17;;;24.20;37.20;;;;;;6256168;27;80383;-50
2024/01/12 09:40:15;;;;;;;5.47;3.20;;;24.30;37.20;;;;;;6257124;27;82597;-53
2024/01/12 09:43:15;;;;;;;5.55;3.15;;;24.30;37.10;;;;;;6255658;27;81743;-50
2024/01/12 09:46:16;;;;;;;5.82;3.30;;;24.40;37.20;;;;;;6273803;27;81882;-50
2024/01/12 09:49:17;;;;;;;4.57;2.78;;;24.40;37.20;;;;;;6263636;27;80934;-52
2024/01/12 09:52:18;;;;;;;5.38;3.50;;;24.40;37.20;;;;;;6262599;27;80703;-48
2024/01/12 09:55:19;;;;;;;4.65;2.45;;;24.40;37.40;;;;;;6265530;27;80956;-52
2024/01/12 09:58:19;;;;;;;6.55;3.30;;;24.40;37.30;;;;;;6265472;27;80451;-52
2024/01/12 10:01:20;;;;;;;13.50;3.33;;;24.40;38.80;;;;;;6266996;27;82050;-53
2024/01/12 10:04:20;;;;;;;7.30;3.65;;;24.30;38.70;;;;;;6266831;27;81342;-50
2024/01/12 10:07:21;;;;;;;5.47;3.50;;;24.30;39.40;;;;;;6257253;27;80858;-59
2024/01/12 10:10:21;;;;;;;4.75;2.80;;;24.20;39.90;;;;;;6266835;27;80266;-59
2024/01/12 10:13:22;;;;;;;4.47;2.70;;;24.20;40.20;;;;;;6274758;27;80658;-61
2024/01/12 10:16:28;;;;;;;5.72;3.20;;;24.20;40.40;;;;;;6267956;27;81133;-59
2024/01/12 10:19:29;;;;;;;4.40;2.67;;;24.30;41.10;;;;;;6261360;27;81473;-61
2024/01/12 10:22:29;;;;;;;4.32;2.78;;;24.30;41.00;;;;;;6263733;27;83637;-60
2024/01/12 10:25:30;;;;;;;5.07;2.75;;;24.30;41.80;;;;;;6256250;27;80756;-59
2024/01/12 10:28:30;;;;;;;5.15;3.10;;;24.30;41.10;;;;;;6256396;27;81413;-58
2024/01/12 10:31:31;;;;;;;5.43;2.83;;;24.30;41.30;;;;;;6273071;27;81056;-60
2024/01/12 10:34:33;;;;;;;4.60;3.03;;;24.20;41.10;;;;;;6252072;27;80203;-57
2024/01/12 10:37:34;;;;;;;5.13;2.85;;;24.20;41.40;;;;;;6264708;27;80528;-55
2024/01/12 10:40:34;;;;;;;7.20;3.45;;;24.20;41.30;;;;;;6257095;27;81801;-58
2024/01/12 10:43:35;;;;;;;5.50;3.05;;;24.20;41.60;;;;;;6256800;27;80277;-57
2024/01/12 10:46:36;;;;;;;7.22;2.80;;;24.20;41.40;;;;;;6265301;27;80242;-58
2024/01/12 10:49:36;;;;;;;4.28;2.78;;;24.20;41.70;;;;;;6273947;27;80506;-57
2024/01/12 10:52:37;;;;;;;4.82;3.22;;;24.20;41.70;;;;;;6274090;27;80259;-58
2024/01/12 10:55:37;;;;;;;4.43;2.97;;;24.30;41.80;;;;;;6273060;27;80388;-59
2024/01/12 10:58:37;;;;;;;4.60;2.58;;;24.10;41.30;;;;;;6274410;27;80868;-58
2024/01/12 11:01:38;;;;;;;5.07;2.58;;;24.10;41.10;;;;;;6273613;27;81061;-62
2024/01/12 11:04:38;;;;;;;4.75;2.50;;;24.00;41.10;;;;;;6273829;27;81351;-60
2024/01/12 11:07:40;;;;;;;5.90;3.17;;;24.00;41.70;;;;;;6274084;27;80600;-61
2024/01/12 11:10:41;;;;;;;3.88;2.80;;;23.90;41.40;;;;;;6251667;27;80512;-61
2024/01/12 11:13:41;;;;;;;4.32;2.80;;;23.90;42.30;;;;;;6237845;27;82643;-61
2024/01/12 11:16:42;;;;;;;4.85;2.88;;;24.00;42.10;;;;;;6235459;28;80241;-61
2024/01/12 11:19:42;;;;;;;5.57;2.75;;;24.00;42.50;;;;;;6248692;27;80630;-55
2024/01/12 11:22:43;;;;;;;3.97;2.53;;;23.90;42.40;;;;;;6248901;28;83646;-61
2024/01/12 11:25:44;;;;;;;6.53;3.35;;;23.90;42.10;;;;;;6248271;27;80832;-61
2024/01/12 11:28:44;;;;;;;4.57;3.05;;;23.80;42.60;;;;;;6248202;27;80601;-60
2024/01/12 11:31:45;;;;;;;5.60;3.53;;;23.80;41.90;;;;;;6247133;28;81106;-61
2024/01/12 11:34:46;;;;;;;4.25;3.00;;;23.80;41.80;;;;;;6226473;28;81392;-61
2024/01/12 11:37:46;;;;;;;4.97;2.72;;;23.80;41.80;;;;;;6236618;28;86475;-61
2024/01/12 11:40:48;;;;;;;4.43;2.63;;;23.80;42.40;;;;;;6238814;28;80534;-61
2024/01/12 11:43:49;;;;;;;5.93;3.30;;;23.80;42.30;;;;;;6235600;28;80895;-61
2024/01/12 11:46:50;;;;;;;4.55;2.80;;;23.70;42.20;;;;;;6240341;27;80484;-61
2024/01/12 11:49:51;;;;;;;4.28;3.20;;;23.80;42.10;;;;;;6238130;27;79953;-62
2024/01/12 11:52:52;;;;;;;5.00;3.00;;;23.80;42.00;;;;;;6225026;27;80478;-61
2024/01/12 11:55:53;;;;;;;4.18;2.85;;;23.80;41.90;;;;;;6240695;28;80450;-61
2024/01/12 11:58:57;;;;;;;3.83;2.60;;;23.80;42.00;;;;;;6243363;27;81175;-52
2024/01/12 12:01:57;;;;;;;5.47;2.70;;;23.80;42.10;;;;;;6238773;28;81569;-55
2024/01/12 12:04:58;;;;;;;4.13;3.00;;;23.70;42.10;;;;;;6239117;28;83489;-55
2024/01/12 12:07:58;;;;;;;5.43;3.50;;;23.60;42.00;;;;;;6242947;27;80482;-55
2024/01/12 12:10:59;;;;;;;5.53;3.03;;;23.60;42.10;;;;;;6257966;27;81163;-54
2024/01/12 12:13:59;;;;;;;6.25;3.63;;;23.50;41.80;;;;;;6267326;27;80845;-57
2024/01/12 12:17:00;;;;;;;4.20;3.22;;;23.50;41.50;;;;;;6266488;27;80392;-55
2024/01/12 12:20:00;;;;;;;4.25;2.90;;;23.50;41.40;;;;;;6271701;27;82942;-52
2024/01/12 12:23:01;;;;;;;6.15;3.38;;;23.40;41.50;;;;;;6278819;27;81092;-53
2024/01/12 12:26:01;;;;;;;6.45;3.60;;;23.30;41.30;;;;;;6267380;27;80375;-51
2024/01/12 12:29:03;;;;;;;5.25;3.42;;;23.30;41.20;;;;;;6254536;27;84500;-51
2024/01/12 12:32:04;;;;;;;6.13;3.20;;;23.20;41.30;;;;;;6264930;27;82101;-55
2024/01/12 12:35:05;;;;;;;5.43;3.33;;;23.30;41.40;;;;;;6253270;27;80305;-61
2024/01/12 12:38:06;;;;;;;8.38;4.15;;;23.20;41.20;;;;;;6253788;27;80571;-61
2024/01/12 12:41:07;;;;;;;7.93;4.05;;;23.20;41.20;;;;;;6255098;27;80616;-60
2024/01/12 12:44:08;;;;;;;8.85;4.47;;;23.20;41.20;;;;;;6253873;27;80406;-61
2024/01/12 12:47:08;;;;;;;5.65;3.85;;;23.20;41.00;;;;;;6254868;27;80349;-59
2024/01/12 12:50:12;;;;;;;7.63;4.78;;;23.10;40.70;;;;;;6255469;27;80997;-60
2024/01/12 12:53:14;;;;;;;8.48;4.15;;;23.10;40.50;;;;;;6268340;27;80917;-59
2024/01/12 12:56:15;;;;;;;7.05;4.68;;;23.10;40.40;;;;;;6255394;27;84421;-60
2024/01/12 12:59:15;;;;;;;8.13;4.70;;;23.00;40.40;;;;;;6270651;27;81024;-60
2024/01/12 13:02:16;;;;;;;7.38;4.10;;;23.00;40.30;;;;;;6260167;27;81950;-62
2024/01/12 13:05:18;;;;;;;8.52;4.13;;;23.00;40.60;;;;;;6255012;27;84435;-62
2024/01/12 13:08:19;;;;;;;7.40;4.63;;;23.00;40.60;;;;;;6275477;27;80226;-61
2024/01/12 13:11:20;;;;;;;8.93;4.40;;;23.10;40.30;;;;;;6268468;27;82578;-62
2024/01/12 13:14:20;;;;;;;7.28;4.32;;;23.20;40.00;;;;;;6263275;27;81630;-60
2024/01/12 13:17:21;;;;;;;6.60;4.13;;;23.20;39.80;;;;;;6269470;27;80075;-61
2024/01/12 13:20:21;;;;;;;5.85;3.80;;;23.30;39.70;;;;;;6275514;27;81555;-61
2024/01/12 13:23:22;;;;;;;7.40;4.35;;;23.50;40.10;;;;;;6276763;27;80410;-58
2024/01/12 13:26:23;;;;;;;7.25;4.10;;;23.60;40.10;;;;;;6276388;27;81677;-60
2024/01/12 13:29:23;;;;;;;8.43;4.43;;;23.80;40.10;;;;;;6262937;27;82023;-58
2024/01/12 13:32:24;;;;;;;7.82;4.18;;;23.90;39.90;;;;;;6276360;27;80631;-59
2024/01/12 13:35:24;;;;;;;7.22;3.97;;;24.00;39.90;;;;;;6274653;27;80704;-59
2024/01/12 13:38:25;;;;;;;5.22;3.42;;;23.90;39.70;;;;;;6276410;27;82624;-58
2024/01/12 13:41:25;;;;;;;7.78;4.30;;;23.90;40.00;;;;;;6273848;27;80527;-59
2024/01/12 13:44:27;;;;;;;8.05;4.20;;;23.80;40.00;;;;;;6258861;27;82677;-59
2024/01/12 13:47:27;;;;;;;7.93;3.72;;;23.70;40.10;;;;;;6254436;27;81117;-57
2024/01/12 13:50:27;;;;;;;5.47;3.55;;;23.70;40.20;;;;;;6264202;27;81790;-56
2024/01/12 13:53:29;;;;;;;6.57;4.10;;;23.70;40.20;;;;;;6250576;27;80599;-55
2024/01/12 13:56:29;;;;;;;6.68;4.22;;;23.60;40.10;;;;;;6258597;27;80552;-57
2024/01/12 13:59:30;;;;;;;5.93;3.78;;;23.60;40.10;;;;;;6266148;27;80758;-59
2024/01/12 14:02:30;;;;;;;7.50;4.25;;;23.60;40.10;;;;;;6266508;27;80303;-61
2024/01/12 14:05:31;;;;;;;6.55;4.07;;;23.50;40.10;;;;;;6252214;27;81797;-58
2024/01/12 14:08:31;;;;;;;6.65;3.72;;;23.50;40.10;;;;;;6265401;27;80333;-59
2024/01/12 14:11:33;;;;;;;8.15;4.65;;;23.50;40.10;;;;;;6276298;27;80941;-57
2024/01/12 14:14:34;;;;;;;7.28;4.25;;;23.40;40.10;;;;;;6258622;27;81125;-60
2024/01/12 14:17:35;;;;;;;8.40;3.75;;;23.40;40.70;;;;;;6276212;27;80502;-59
2024/01/12 14:20:35;;;;;;;8.45;4.03;;;23.40;40.40;;;;;;6275757;27;80687;-56
2024/01/12 14:23:36;;;;;;;8.07;4.30;;;23.40;41.10;;;;;;6263214;27;82878;-59
2024/01/12 14:26:36;;;;;;;13.15;4.18;;;23.40;41.20;;;;;;6254022;27;80358;-58
2024/01/12 14:29:37;;;;;;;11.80;4.65;;;23.40;41.10;;;;;;6252972;27;82079;-56
2024/01/12 14:32:37;;;;;;;11.25;3.90;;;23.40;41.40;;;;;;6274487;27;80977;-56
2024/01/12 14:35:38;;;;;;;5.75;3.20;;;23.40;41.50;;;;;;6258745;27;80362;-56
2024/01/12 14:38:38;;;;;;;6.95;3.47;;;23.40;42.20;;;;;;6258964;27;80674;-58
2024/01/12 14:41:39;;;;;;;12.00;4.40;;;23.40;41.70;;;;;;6274006;27;80925;-59
2024/01/12 14:44:39;;;;;;;8.35;4.00;;;23.40;41.70;;;;;;6271728;27;80427;-58
2024/01/12 14:47:42;;;;;;;7.80;3.80;;;23.50;41.80;;;;;;6272476;27;80573;-60
2024/01/12 14:50:42;;;;;;;7.32;3.97;;;23.50;41.80;;;;;;6265696;27;80800;-60
2024/01/12 14:53:43;;;;;;;7.22;4.13;;;23.50;42.10;;;;;;6265903;27;81116;-59
2024/01/12 14:56:44;;;;;;;9.05;4.28;;;23.50;42.20;;;;;;6276421;27;80622;-60
2024/01/12 14:59:45;;;;;;;8.93;4.43;;;23.40;42.20;;;;;;6275736;27;80825;-59
2024/01/12 15:02:45;;;;;;;7.15;3.75;;;23.50;42.30;;;;;;6275901;27;87662;-59
2024/01/12 15:05:46;;;;;;;8.65;4.43;;;23.50;42.50;;;;;;6270543;27;81302;-57
2024/01/12 15:08:46;;;;;;;8.77;4.40;;;23.50;42.30;;;;;;6270945;27;81469;-59
2024/01/12 15:11:47;;;;;;;7.63;4.10;;;23.50;42.60;;;;;;6273143;27;80706;-60
2024/01/12 15:14:47;;;;;;;8.00;4.15;;;23.40;42.60;;;;;;6272126;27;80883;-59
2024/01/12 15:17:49;;;;;;;8.30;4.35;;;23.40;42.30;;;;;;6274783;27;82154;-59
2024/01/12 15:20:53;;;;;;;7.18;3.95;;;23.40;42.30;;;;;;6260134;27;80327;-59
2024/01/12 15:23:54;;;;;;;8.82;4.20;;;23.40;42.40;;;;;;6264620;27;81754;-60
2024/01/12 15:26:54;;;;;;;6.80;4.28;;;23.40;42.00;;;;;;6251617;27;80658;-57
2024/01/12 15:29:55;;;;;;;6.75;4.65;;;23.40;42.00;;;;;;6260846;27;80410;-61
2024/01/12 15:32:55;;;;;;;9.27;5.15;;;23.30;41.90;;;;;;6274513;27;80425;-60